Airfield :
LOGIN :

Register | Disclaimer

   EN    FR    IT 

 










Legend :    VFR   Marginal VFR   IFR   Intensive IFR   Very Intensive IFR
Visi :
Ceiling :
>= 8 km
>= 3000ft
5 to 8 km
1000 to 3000 ft
1500m to 5 km
500 to 1000 ft
800 to 1500m
200 to 500 ft
< 800m
< 200 ft
Symbols :   Thunderstorms  Fog  Heavy snow  Heavy precipitations  Wind > 20 kt
SIGMETs :     Misc.  Thunderstorms  Icing  Turbulence  Mountain Waves  Volcanic Ashes






- Airport Elevation : 202 ft
- IATA code : LGW


EGKK - London Gatwick

CURRENT METAR :
  • 021320Z 07006KT 040V100 6000 BKN011 07/05 Q1029

EXPIRED METARs :
  • 021250Z 03006KT 350V070 5000 HZ BKN009 07/04 Q1029
  • 021220Z 02007KT 4600 HZ BKN009 06/04 Q1030
  • 021150Z 04006KT 010V080 4500 HZ BKN009 06/04 Q1030
  • 021120Z 03007KT 4600 HZ BKN009 06/04 Q1030
  • 021050Z 05008KT 020V080 3800 HZ BKN006 06/04 Q1030

TAF TAF EGKK
Valid from the 02 at 12:00 until the 03 at 18:00 UTC


021056Z 0212/0318 05008KT 3000 BR BKN006
BECMG 0212/0215 9999 NSW SCT010
TEMPO 0215/0224 8000
PROB30 0221/0224 4000 BR
BECMG 0300/0303 3000 BR
PROB30
TEMPO 0304/0310 1400 BKN003
BECMG 0308/0311 9999 NSW
PROB30
TEMPO 0313/0317 6000 SHRA BKN014



MET'MAP, your aeronautical weather chart ! - Copyright ORBIFLY December 2007 - Disclaimer

ORBIFLY MET'MAP TEAM :

Programming & Development : Alexandra Zaïnal
Concept & original design : Baudouin d'Aumeries
Assistance for programming : Marc-Olivier Méhu
Technical & hardware support : Manuel Goepfert

Contact : metmap@orbifly.com




SOURCES & CREDITS :

   NOAA